< Typhoon 197121 1971 Season Typhoon 197123 >
Typhoon 197122 (SHIRLEY)
General InformationTrack Information on Google Maps || Disaster Info.ResourceGoogle EarthGE AnimationAtom FeedGeoJSON
Detalied Best Track (Time Zone = UTC)
Year Month Day Hour Lat. Long. Pressure (hPa) Wind (kt) Class Image Chart
1971 8 10 18 23.5 155.0 1008 0 2 -- Chart
1971 8 11 00 23.0 153.7 1008 0 2 -- Chart
1971 8 11 06 22.7 152.5 1006 0 2 -- Chart
1971 8 11 12 22.4 151.3 1004 0 2 -- Chart
1971 8 11 18 22.2 150.2 1004 0 2 -- Chart
1971 8 12 00 22.0 148.2 1002 0 2 -- Chart
1971 8 12 06 22.0 147.8 1000 0 2 -- Chart
1971 8 12 12 22.2 146.8 998 0 9 -- Chart
1971 8 12 18 22.3 146.0 994 0 9 -- Chart
1971 8 13 00 22.5 145.3 992 0 9 -- Chart
1971 8 13 06 22.7 144.5 990 0 9 -- Chart
1971 8 13 12 22.8 144.4 990 0 9 -- Chart
1971 8 13 18 23.6 144.2 985 0 9 -- Chart
1971 8 14 00 24.3 144.4 980 0 9 -- Chart
1971 8 14 06 24.8 144.8 980 0 9 -- Chart
1971 8 14 12 25.2 145.3 975 0 9 -- Chart
1971 8 14 18 26.0 145.5 970 0 9 -- Chart
1971 8 15 00 27.2 145.3 970 0 9 -- Chart
1971 8 15 06 28.0 145.2 965 0 9 -- Chart
1971 8 15 12 28.7 145.4 960 0 9 -- Chart
1971 8 15 18 30.4 145.7 960 0 9 -- Chart
1971 8 16 00 31.5 145.6 960 0 9 -- Chart
1971 8 16 06 32.7 146.0 960 0 9 -- Chart
1971 8 16 12 34.5 147.0 965 0 9 -- Chart
1971 8 16 18 36.5 149.0 965 0 9 -- Chart
1971 8 17 00 38.6 150.2 960 0 9 -- Chart
1971 8 17 06 42.0 153.6 955 0 9 -- Chart
1971 8 17 12 45.0 157.0 960 0 9 -- Chart
1971 8 17 18 47.4 160.0 970 0 6 -- Chart
1971 8 18 00 50.0 164.0 980 0 6 -- Chart
1971 8 18 06 52.0 168.0 992 0 6 -- Chart
1971 8 18 12 54.0 172.0 992 0 6 -- Chart
1971 8 18 18 55.0 176.0 998 0 6 -- Chart
1971 8 19 00 56.5 182.5 1000 0 6 -- Chart
Japan Meteorological Agency Best Track Data | Correction Date : 1989-06-01
< Typhoon 197121 1971 Season Typhoon 197123 >

Help